sensor_id;sensor_type;location;lat;lon;timestamp;pressure;altitude;pressure_sealevel;temperature;humidity
16451;BME280;12243;42.708;23.310;2023-06-24T00:00:29;95024.28;;;23.07;84.23
16451;BME280;12243;42.708;23.310;2023-06-24T00:02:58;95026.53;;;23.03;84.57
16451;BME280;12243;42.708;23.310;2023-06-24T00:05:27;95023.69;;;22.98;84.62
16451;BME280;12243;42.708;23.310;2023-06-24T00:07:54;95024.66;;;22.91;85.37
16451;BME280;12243;42.708;23.310;2023-06-24T00:10:22;95027.75;;;22.88;85.54
16451;BME280;12243;42.708;23.310;2023-06-24T00:12:49;95019.38;;;22.84;85.43
16451;BME280;12243;42.708;23.310;2023-06-24T00:15:16;95016.91;;;22.82;85.62
16451;BME280;12243;42.708;23.310;2023-06-24T00:17:43;95016.50;;;22.86;85.78
16451;BME280;12243;42.708;23.310;2023-06-24T00:20:12;95019.34;;;22.77;86.09
16451;BME280;12243;42.708;23.310;2023-06-24T00:22:40;95018.72;;;22.75;86.27
16451;BME280;12243;42.708;23.310;2023-06-24T00:25:09;95027.91;;;22.66;86.83
16451;BME280;12243;42.708;23.310;2023-06-24T00:27:36;95029.34;;;22.69;86.28
16451;BME280;12243;42.708;23.310;2023-06-24T00:30:07;95020.16;;;22.71;86.45
16451;BME280;12243;42.708;23.310;2023-06-24T00:32:34;95021.78;;;22.66;86.68
16451;BME280;12243;42.708;23.310;2023-06-24T00:35:01;95015.66;;;22.65;86.49
16451;BME280;12243;42.708;23.310;2023-06-24T00:37:30;95018.94;;;22.67;86.43
16451;BME280;12243;42.708;23.310;2023-06-24T00:39:57;95018.09;;;22.53;86.50
16451;BME280;12243;42.708;23.310;2023-06-24T00:42:24;95026.66;;;22.49;86.90
16451;BME280;12243;42.708;23.310;2023-06-24T00:44:51;95023.81;;;22.57;86.28
16451;BME280;12243;42.708;23.310;2023-06-24T00:47:18;95017.69;;;22.50;86.73
16451;BME280;12243;42.708;23.310;2023-06-24T00:49:45;95014.00;;;22.44;86.66
16451;BME280;12243;42.708;23.310;2023-06-24T00:52:12;95009.72;;;22.43;87.08
16451;BME280;12243;42.708;23.310;2023-06-24T00:54:43;95010.75;;;22.42;86.85
16451;BME280;12243;42.708;23.310;2023-06-24T00:57:10;95001.78;;;22.50;86.27
16451;BME280;12243;42.708;23.310;2023-06-24T00:59:39;95007.66;;;22.52;86.46
16451;BME280;12243;42.708;23.310;2023-06-24T01:02:08;95004.41;;;22.50;86.47
16451;BME280;12243;42.708;23.310;2023-06-24T01:04:36;95001.78;;;22.50;86.12
16451;BME280;12243;42.708;23.310;2023-06-24T01:07:05;94999.91;;;22.44;86.59
16451;BME280;12243;42.708;23.310;2023-06-24T01:09:32;94999.28;;;22.42;86.67
16451;BME280;12243;42.708;23.310;2023-06-24T01:12:00;94999.88;;;22.30;87.51
16451;BME280;12243;42.708;23.310;2023-06-24T01:14:30;94997.03;;;22.25;87.51
16451;BME280;12243;42.708;23.310;2023-06-24T01:16:59;94989.88;;;22.26;87.66
16451;BME280;12243;42.708;23.310;2023-06-24T01:20:03;94990.69;;;22.26;87.53
16451;BME280;12243;42.708;23.310;2023-06-24T01:22:56;94985.38;;;22.20;87.74
16451;BME280;12243;42.708;23.310;2023-06-24T01:25:39;94984.97;;;22.16;88.11
16451;BME280;12243;42.708;23.310;2023-06-24T01:28:33;94992.28;;;22.14;88.23
16451;BME280;12243;42.708;23.310;2023-06-24T01:31:32;94999.63;;;22.12;88.34
16451;BME280;12243;42.708;23.310;2023-06-24T01:34:06;94995.50;;;22.09;88.53
16451;BME280;12243;42.708;23.310;2023-06-24T01:36:38;94999.97;;;22.02;88.95
16451;BME280;12243;42.708;23.310;2023-06-24T01:39:08;95003.66;;;22.01;89.12
16451;BME280;12243;42.708;23.310;2023-06-24T01:41:51;95018.19;;;22.12;88.98
16451;BME280;12243;42.708;23.310;2023-06-24T01:44:20;95020.06;;;22.18;90.34
16451;BME280;12243;42.708;23.310;2023-06-24T01:46:51;95033.34;;;22.18;93.07
16451;BME280;12243;42.708;23.310;2023-06-24T01:49:21;95033.66;;;22.02;94.90
16451;BME280;12243;42.708;23.310;2023-06-24T01:51:50;95032.19;;;21.93;95.53
16451;BME280;12243;42.708;23.310;2023-06-24T01:54:18;95028.09;;;21.90;95.48
16451;BME280;12243;42.708;23.310;2023-06-24T01:56:49;95033.78;;;21.80;96.27
16451;BME280;12243;42.708;23.310;2023-06-24T01:59:17;95035.38;;;21.75;96.83
16451;BME280;12243;42.708;23.310;2023-06-24T02:01:46;95039.84;;;21.74;96.79
16451;BME280;12243;42.708;23.310;2023-06-24T02:04:15;95039.78;;;21.61;97.36
16451;BME280;12243;42.708;23.310;2023-06-24T02:06:44;95045.94;;;21.68;97.75
16451;BME280;12243;42.708;23.310;2023-06-24T02:09:11;95047.59;;;21.69;97.70
16451;BME280;12243;42.708;23.310;2023-06-24T02:11:41;95054.59;;;21.49;98.59
16451;BME280;12243;42.708;23.310;2023-06-24T02:14:10;95040.13;;;21.45;99.47
16451;BME280;12243;42.708;23.310;2023-06-24T02:16:39;95055.81;;;21.46;99.51
16451;BME280;12243;42.708;23.310;2023-06-24T02:19:09;95051.16;;;21.48;99.59
16451;BME280;12243;42.708;23.310;2023-06-24T02:21:40;95062.63;;;21.62;99.19
16451;BME280;12243;42.708;23.310;2023-06-24T02:24:08;95059.53;;;21.52;99.94
16451;BME280;12243;42.708;23.310;2023-06-24T02:26:36;95060.63;;;21.36;100.00
16451;BME280;12243;42.708;23.310;2023-06-24T02:29:09;95067.63;;;21.22;100.00
16451;BME280;12243;42.708;23.310;2023-06-24T02:31:37;95070.31;;;21.01;100.00
16451;BME280;12243;42.708;23.310;2023-06-24T02:34:04;95079.97;;;20.87;100.00
16451;BME280;12243;42.708;23.310;2023-06-24T02:36:31;95084.69;;;20.70;100.00
16451;BME280;12243;42.708;23.310;2023-06-24T02:39:01;95091.53;;;20.58;100.00
16451;BME280;12243;42.708;23.310;2023-06-24T02:41:28;95097.06;;;20.48;100.00
16451;BME280;12243;42.708;23.310;2023-06-24T02:43:55;95090.53;;;20.44;100.00
16451;BME280;12243;42.708;23.310;2023-06-24T02:46:22;95095.38;;;20.40;100.00
16451;BME280;12243;42.708;23.310;2023-06-24T02:48:51;95093.03;;;20.31;100.00
16451;BME280;12243;42.708;23.310;2023-06-24T02:51:19;95086.63;;;20.25;100.00
16451;BME280;12243;42.708;23.310;2023-06-24T02:53:46;95088.91;;;20.28;100.00
16451;BME280;12243;42.708;23.310;2023-06-24T02:56:17;95093.84;;;20.31;100.00
16451;BME280;12243;42.708;23.310;2023-06-24T02:58:47;95110.09;;;20.50;100.00
16451;BME280;12243;42.708;23.310;2023-06-24T03:01:21;95109.16;;;20.51;100.00
16451;BME280;12243;42.708;23.310;2023-06-24T03:03:53;95102.94;;;20.43;100.00
16451;BME280;12243;42.708;23.310;2023-06-24T03:06:22;95099.72;;;20.48;100.00
16451;BME280;12243;42.708;23.310;2023-06-24T03:08:50;95099.72;;;20.48;100.00
16451;BME280;12243;42.708;23.310;2023-06-24T03:11:22;95105.66;;;20.50;100.00
16451;BME280;12243;42.708;23.310;2023-06-24T03:13:49;95096.03;;;20.64;100.00
16451;BME280;12243;42.708;23.310;2023-06-24T03:16:22;95098.22;;;20.75;100.00
16451;BME280;12243;42.708;23.310;2023-06-24T03:19:00;95092.13;;;20.81;100.00
16451;BME280;12243;42.708;23.310;2023-06-24T03:21:28;95096.31;;;20.90;100.00
16451;BME280;12243;42.708;23.310;2023-06-24T03:24:01;95111.44;;;20.97;100.00
16451;BME280;12243;42.708;23.310;2023-06-24T03:26:32;95100.69;;;21.05;100.00
16451;BME280;12243;42.708;23.310;2023-06-24T03:29:00;95107.56;;;21.21;100.00
16451;BME280;12243;42.708;23.310;2023-06-24T03:31:28;95127.59;;;21.30;100.00
16451;BME280;12243;42.708;23.310;2023-06-24T03:33:55;95128.13;;;21.40;100.00
16451;BME280;12243;42.708;23.310;2023-06-24T03:36:23;95128.38;;;21.73;100.00
16451;BME280;12243;42.708;23.310;2023-06-24T03:38:50;95130.69;;;22.24;100.00
16451;BME280;12243;42.708;23.310;2023-06-24T03:41:18;95128.41;;;22.76;97.78
16451;BME280;12243;42.708;23.310;2023-06-24T03:43:46;95133.03;;;23.15;94.78
16451;BME280;12243;42.708;23.310;2023-06-24T03:46:13;95138.56;;;23.53;92.51
16451;BME280;12243;42.708;23.310;2023-06-24T03:48:40;95141.19;;;23.93;88.90
16451;BME280;12243;42.708;23.310;2023-06-24T03:51:07;95141.53;;;24.23;86.94
16451;BME280;12243;42.708;23.310;2023-06-24T03:53:36;95143.03;;;24.58;84.97
16451;BME280;12243;42.708;23.310;2023-06-24T03:56:03;95138.59;;;24.90;83.49
16451;BME280;12243;42.708;23.310;2023-06-24T03:58:30;95148.41;;;25.28;81.11
16451;BME280;12243;42.708;23.310;2023-06-24T04:01:01;95144.81;;;25.65;79.24
16451;BME280;12243;42.708;23.310;2023-06-24T04:03:28;95141.06;;;25.98;76.53
16451;BME280;12243;42.708;23.310;2023-06-24T04:05:56;95146.72;;;26.27;75.28
16451;BME280;12243;42.708;23.310;2023-06-24T04:08:23;95147.47;;;26.52;74.35
16451;BME280;12243;42.708;23.310;2023-06-24T04:10:51;95142.38;;;26.81;72.77
16451;BME280;12243;42.708;23.310;2023-06-24T04:13:18;95141.16;;;27.14;71.11
16451;BME280;12243;42.708;23.310;2023-06-24T04:15:45;95138.19;;;27.45;69.82
16451;BME280;12243;42.708;23.310;2023-06-24T04:18:13;95130.91;;;27.76;68.10
16451;BME280;12243;42.708;23.310;2023-06-24T04:20:40;95133.09;;;28.02;66.50
16451;BME280;12243;42.708;23.310;2023-06-24T04:23:07;95127.03;;;28.19;65.49
16451;BME280;12243;42.708;23.310;2023-06-24T04:25:36;95131.81;;;28.29;65.29
16451;BME280;12243;42.708;23.310;2023-06-24T04:28:04;95123.28;;;28.43;65.01
16451;BME280;12243;42.708;23.310;2023-06-24T04:30:32;95125.53;;;28.75;64.19
16451;BME280;12243;42.708;23.310;2023-06-24T04:33:02;95132.88;;;29.08;63.26
16451;BME280;12243;42.708;23.310;2023-06-24T04:35:30;95124.69;;;29.49;61.51
16451;BME280;12243;42.708;23.310;2023-06-24T04:37:57;95129.78;;;29.62;59.92
16451;BME280;12243;42.708;23.310;2023-06-24T04:40:24;95131.72;;;29.66;59.73
16451;BME280;12243;42.708;23.310;2023-06-24T04:42:51;95134.63;;;29.48;59.88
16451;BME280;12243;42.708;23.310;2023-06-24T04:45:18;95127.47;;;29.54;59.87
16451;BME280;12243;42.708;23.310;2023-06-24T04:47:45;95136.94;;;29.73;59.45
16451;BME280;12243;42.708;23.310;2023-06-24T04:50:12;95147.00;;;30.00;58.18
16451;BME280;12243;42.708;23.310;2023-06-24T04:52:40;95144.06;;;30.18;57.85
16451;BME280;12243;42.708;23.310;2023-06-24T04:55:08;95145.00;;;30.51;57.09
16451;BME280;12243;42.708;23.310;2023-06-24T04:57:35;95143.81;;;30.80;56.49
16451;BME280;12243;42.708;23.310;2023-06-24T05:00:02;95143.41;;;30.94;55.36
16451;BME280;12243;42.708;23.310;2023-06-24T05:02:30;95143.06;;;30.68;55.22
16451;BME280;12243;42.708;23.310;2023-06-24T05:04:56;95132.59;;;30.45;56.39
16451;BME280;12243;42.708;23.310;2023-06-24T05:07:23;95141.06;;;30.36;57.08
16451;BME280;12243;42.708;23.310;2023-06-24T05:09:52;95134.72;;;30.43;56.58
16451;BME280;12243;42.708;23.310;2023-06-24T05:12:18;95140.66;;;30.45;56.72
16451;BME280;12243;42.708;23.310;2023-06-24T05:14:49;95136.09;;;30.67;56.21
16451;BME280;12243;42.708;23.310;2023-06-24T05:17:16;95130.34;;;30.80;55.65
16451;BME280;12243;42.708;23.310;2023-06-24T05:19:43;95129.66;;;30.90;55.00
16451;BME280;12243;42.708;23.310;2023-06-24T05:22:10;95130.00;;;30.99;55.21
16451;BME280;12243;42.708;23.310;2023-06-24T05:24:37;95126.34;;;31.32;54.01
16451;BME280;12243;42.708;23.310;2023-06-24T05:27:06;95120.19;;;31.37;53.44
16451;BME280;12243;42.708;23.310;2023-06-24T05:29:33;95126.22;;;31.22;54.12
16451;BME280;12243;42.708;23.310;2023-06-24T05:32:00;95125.00;;;31.35;53.16
16451;BME280;12243;42.708;23.310;2023-06-24T05:34:29;95126.47;;;31.47;52.94
16451;BME280;12243;42.708;23.310;2023-06-24T05:36:56;95130.25;;;31.51;52.83
16451;BME280;12243;42.708;23.310;2023-06-24T05:39:24;95128.44;;;31.57;52.80
16451;BME280;12243;42.708;23.310;2023-06-24T05:41:50;95139.22;;;31.62;52.95
16451;BME280;12243;42.708;23.310;2023-06-24T05:44:19;95131.84;;;31.47;53.52
16451;BME280;12243;42.708;23.310;2023-06-24T05:46:48;95132.88;;;31.73;52.57
16451;BME280;12243;42.708;23.310;2023-06-24T05:49:15;95129.28;;;31.95;51.69
16451;BME280;12243;42.708;23.310;2023-06-24T05:51:41;95126.53;;;31.90;52.04
16451;BME280;12243;42.708;23.310;2023-06-24T05:54:08;95111.59;;;32.14;51.43
16451;BME280;12243;42.708;23.310;2023-06-24T05:56:35;95110.31;;;32.22;51.06
16451;BME280;12243;42.708;23.310;2023-06-24T05:59:02;95111.66;;;32.24;50.47
16451;BME280;12243;42.708;23.310;2023-06-24T06:01:30;95118.69;;;32.36;50.71
16451;BME280;12243;42.708;23.310;2023-06-24T06:03:57;95116.69;;;32.11;50.80
16451;BME280;12243;42.708;23.310;2023-06-24T06:06:24;95107.47;;;31.64;52.84
16451;BME280;12243;42.708;23.310;2023-06-24T06:08:51;95106.22;;;31.77;52.55
16451;BME280;12243;42.708;23.310;2023-06-24T06:11:18;95108.13;;;31.82;52.04
16451;BME280;12243;42.708;23.310;2023-06-24T06:13:44;95110.16;;;31.96;52.87
16451;BME280;12243;42.708;23.310;2023-06-24T06:16:11;95116.84;;;31.89;52.02
16451;BME280;12243;42.708;23.310;2023-06-24T06:18:40;95106.41;;;31.33;52.66
16451;BME280;12243;42.708;23.310;2023-06-24T06:21:08;95098.69;;;31.42;53.51
16451;BME280;12243;42.708;23.310;2023-06-24T06:23:35;95109.22;;;31.48;52.87
16451;BME280;12243;42.708;23.310;2023-06-24T06:26:02;95103.03;;;31.48;53.39
16451;BME280;12243;42.708;23.310;2023-06-24T06:28:29;95115.56;;;31.69;51.97
16451;BME280;12243;42.708;23.310;2023-06-24T06:30:55;95113.53;;;31.82;51.99
16451;BME280;12243;42.708;23.310;2023-06-24T06:33:23;95116.28;;;31.87;51.74
16451;BME280;12243;42.708;23.310;2023-06-24T06:35:52;95113.97;;;32.06;50.69
16451;BME280;12243;42.708;23.310;2023-06-24T06:38:19;95114.91;;;32.32;49.51
16451;BME280;12243;42.708;23.310;2023-06-24T06:40:46;95122.13;;;32.73;48.58
16451;BME280;12243;42.708;23.310;2023-06-24T06:43:13;95118.91;;;32.77;47.58
16451;BME280;12243;42.708;23.310;2023-06-24T06:45:40;95121.09;;;32.85;47.53
16451;BME280;12243;42.708;23.310;2023-06-24T06:48:07;95119.94;;;32.60;47.84
16451;BME280;12243;42.708;23.310;2023-06-24T06:50:34;95126.19;;;32.71;48.19
16451;BME280;12243;42.708;23.310;2023-06-24T06:53:02;95127.56;;;32.79;47.44
16451;BME280;12243;42.708;23.310;2023-06-24T06:55:29;95124.28;;;32.77;47.41
16451;BME280;12243;42.708;23.310;2023-06-24T06:57:56;95121.44;;;32.41;47.90
16451;BME280;12243;42.708;23.310;2023-06-24T07:00:23;95117.09;;;32.35;47.68
16451;BME280;12243;42.708;23.310;2023-06-24T07:02:50;95118.34;;;32.12;47.88
16451;BME280;12243;42.708;23.310;2023-06-24T07:05:17;95120.69;;;32.03;49.36
16451;BME280;12243;42.708;23.310;2023-06-24T07:07:43;95119.72;;;32.19;48.43
16451;BME280;12243;42.708;23.310;2023-06-24T07:10:12;95122.88;;;32.06;49.56
16451;BME280;12243;42.708;23.310;2023-06-24T07:12:39;95123.59;;;31.91;49.97
16451;BME280;12243;42.708;23.310;2023-06-24T07:15:07;95122.31;;;32.04;50.51
16451;BME280;12243;42.708;23.310;2023-06-24T07:17:34;95118.06;;;32.18;50.83
16451;BME280;12243;42.708;23.310;2023-06-24T07:20:01;95119.78;;;32.30;48.94
16451;BME280;12243;42.708;23.310;2023-06-24T07:22:27;95122.44;;;32.24;48.76
16451;BME280;12243;42.708;23.310;2023-06-24T07:24:56;95123.44;;;32.08;48.17
16451;BME280;12243;42.708;23.310;2023-06-24T07:27:24;95119.78;;;32.30;48.38
16451;BME280;12243;42.708;23.310;2023-06-24T07:29:51;95113.66;;;32.44;48.15
16451;BME280;12243;42.708;23.310;2023-06-24T07:32:17;95118.06;;;32.66;47.59
16451;BME280;12243;42.708;23.310;2023-06-24T07:34:44;95116.75;;;32.79;47.60
16451;BME280;12243;42.708;23.310;2023-06-24T07:37:11;95116.22;;;32.77;48.27
16451;BME280;12243;42.708;23.310;2023-06-24T07:39:38;95107.47;;;32.49;47.31
16451;BME280;12243;42.708;23.310;2023-06-24T07:42:05;95101.09;;;32.18;48.35
16451;BME280;12243;42.708;23.310;2023-06-24T07:44:33;95105.69;;;32.17;49.09
16451;BME280;12243;42.708;23.310;2023-06-24T07:47:02;95106.34;;;32.40;50.02
16451;BME280;12243;42.708;23.310;2023-06-24T07:49:29;95106.47;;;32.60;48.34
16451;BME280;12243;42.708;23.310;2023-06-24T07:51:56;95110.25;;;32.64;48.36
16451;BME280;12243;42.708;23.310;2023-06-24T07:54:23;95113.78;;;32.80;47.97
16451;BME280;12243;42.708;23.310;2023-06-24T07:56:50;95118.75;;;33.14;47.73
16451;BME280;12243;42.708;23.310;2023-06-24T07:59:16;95113.63;;;33.23;46.92
16451;BME280;12243;42.708;23.310;2023-06-24T08:01:45;95125.00;;;33.40;46.91
16451;BME280;12243;42.708;23.310;2023-06-24T08:04:11;95116.91;;;33.81;46.93
16451;BME280;12243;42.708;23.310;2023-06-24T08:06:38;95119.91;;;33.89;45.94
16451;BME280;12243;42.708;23.310;2023-06-24T08:09:05;95118.28;;;33.73;47.08
16451;BME280;12243;42.708;23.310;2023-06-24T08:11:32;95119.34;;;33.77;45.55
16451;BME280;12243;42.708;23.310;2023-06-24T08:13:59;95114.75;;;33.83;44.85
16451;BME280;12243;42.708;23.310;2023-06-24T08:16:27;95118.53;;;33.72;45.67
16451;BME280;12243;42.708;23.310;2023-06-24T08:18:55;95107.75;;;33.61;45.33
16451;BME280;12243;42.708;23.310;2023-06-24T08:21:22;95113.13;;;33.82;45.53
16451;BME280;12243;42.708;23.310;2023-06-24T08:23:49;95105.56;;;33.94;44.65
16451;BME280;12243;42.708;23.310;2023-06-24T08:26:19;95111.25;;;33.77;46.22
16451;BME280;12243;42.708;23.310;2023-06-24T08:28:46;95107.75;;;33.51;45.92
16451;BME280;12243;42.708;23.310;2023-06-24T08:31:14;95101.53;;;33.71;46.39
16451;BME280;12243;42.708;23.310;2023-06-24T08:33:43;95101.75;;;33.95;45.94
16451;BME280;12243;42.708;23.310;2023-06-24T08:36:12;95105.56;;;33.84;44.76
16451;BME280;12243;42.708;23.310;2023-06-24T08:38:39;95105.31;;;33.70;46.14
16451;BME280;12243;42.708;23.310;2023-06-24T08:41:07;95106.06;;;33.96;45.57
16451;BME280;12243;42.708;23.310;2023-06-24T08:43:34;95089.88;;;34.06;45.44
16451;BME280;12243;42.708;23.310;2023-06-24T08:46:05;95087.66;;;34.24;44.97
16451;BME280;12243;42.708;23.310;2023-06-24T08:48:33;95087.03;;;34.47;43.65
16451;BME280;12243;42.708;23.310;2023-06-24T08:51:07;95084.34;;;34.52;43.42
16451;BME280;12243;42.708;23.310;2023-06-24T08:53:42;95078.91;;;34.63;43.01
16451;BME280;12243;42.708;23.310;2023-06-24T08:56:09;95092.56;;;33.96;44.69
16451;BME280;12243;42.708;23.310;2023-06-24T08:58:36;95088.28;;;33.80;44.44
16451;BME280;12243;42.708;23.310;2023-06-24T09:01:06;95092.59;;;34.01;43.92
16451;BME280;12243;42.708;23.310;2023-06-24T09:03:33;95081.19;;;34.20;43.24
16451;BME280;12243;42.708;23.310;2023-06-24T09:06:01;95082.22;;;34.34;43.02
16451;BME280;12243;42.708;23.310;2023-06-24T09:08:28;95073.88;;;34.25;43.14
16451;BME280;12243;42.708;23.310;2023-06-24T09:10:57;95076.75;;;34.54;42.89
16451;BME280;12243;42.708;23.310;2023-06-24T09:13:33;95072.19;;;34.99;42.13
16451;BME280;12243;42.708;23.310;2023-06-24T09:16:11;95068.25;;;35.21;41.82
16451;BME280;12243;42.708;23.310;2023-06-24T09:18:38;95077.50;;;35.20;41.68
16451;BME280;12243;42.708;23.310;2023-06-24T09:21:05;95070.78;;;35.46;40.29
16451;BME280;12243;42.708;23.310;2023-06-24T09:23:35;95078.06;;;35.85;40.15
16451;BME280;12243;42.708;23.310;2023-06-24T09:26:04;95075.66;;;36.08;38.73
16451;BME280;12243;42.708;23.310;2023-06-24T09:28:31;95082.72;;;36.33;38.59
16451;BME280;12243;42.708;23.310;2023-06-24T09:31:06;95077.28;;;36.57;38.10
16451;BME280;12243;42.708;23.310;2023-06-24T09:33:33;95078.91;;;36.34;38.07
16451;BME280;12243;42.708;23.310;2023-06-24T09:36:02;95084.72;;;36.22;39.25
16451;BME280;12243;42.708;23.310;2023-06-24T09:38:34;95075.91;;;36.35;38.92
16451;BME280;12243;42.708;23.310;2023-06-24T09:41:04;95080.09;;;36.22;37.96
16451;BME280;12243;42.708;23.310;2023-06-24T09:43:33;95076.72;;;36.12;38.08
16451;BME280;12243;42.708;23.310;2023-06-24T09:46:01;95082.19;;;36.07;37.97
16451;BME280;12243;42.708;23.310;2023-06-24T09:48:28;95078.91;;;36.10;37.54
16451;BME280;12243;42.708;23.310;2023-06-24T09:50:58;95074.28;;;36.10;38.48
16451;BME280;12243;42.708;23.310;2023-06-24T09:53:27;95080.00;;;36.09;38.40
16451;BME280;12243;42.708;23.310;2023-06-24T09:55:54;95068.41;;;36.27;39.46
16451;BME280;12243;42.708;23.310;2023-06-24T09:58:23;95070.41;;;36.40;37.57
16451;BME280;12243;42.708;23.310;2023-06-24T10:00:51;95063.81;;;36.46;38.24
16451;BME280;12243;42.708;23.310;2023-06-24T10:03:19;95059.06;;;36.38;37.96
16451;BME280;12243;42.708;23.310;2023-06-24T10:05:47;95051.09;;;36.23;38.31
16451;BME280;12243;42.708;23.310;2023-06-24T10:08:14;95055.34;;;36.29;38.39
16451;BME280;12243;42.708;23.310;2023-06-24T10:10:41;95050.97;;;36.33;36.72
16451;BME280;12243;42.708;23.310;2023-06-24T10:13:08;95048.50;;;35.84;36.89
16451;BME280;12243;42.708;23.310;2023-06-24T10:15:37;95048.53;;;35.49;38.42
16451;BME280;12243;42.708;23.310;2023-06-24T10:18:33;95036.72;;;35.35;38.87
16451;BME280;12243;42.708;23.310;2023-06-24T10:21:01;95026.84;;;35.54;38.78
16451;BME280;12243;42.708;23.310;2023-06-24T10:23:39;95023.31;;;35.83;39.27
16451;BME280;12243;42.708;23.310;2023-06-24T10:26:11;95013.47;;;35.92;39.54
16451;BME280;12243;42.708;23.310;2023-06-24T10:29:10;95018.31;;;35.95;39.73
16451;BME280;12243;42.708;23.310;2023-06-24T10:31:53;95014.75;;;36.24;38.79
16451;BME280;12243;42.708;23.310;2023-06-24T10:34:27;95019.69;;;35.93;37.73
16451;BME280;12243;42.708;23.310;2023-06-24T10:36:54;95010.09;;;35.76;37.18
16451;BME280;12243;42.708;23.310;2023-06-24T10:39:38;95004.91;;;35.80;38.38
16451;BME280;12243;42.708;23.310;2023-06-24T10:42:27;94998.34;;;35.86;37.48
16451;BME280;12243;42.708;23.310;2023-06-24T10:44:54;94988.72;;;36.23;37.62
16451;BME280;12243;42.708;23.310;2023-06-24T10:47:23;94990.72;;;36.12;39.17
16451;BME280;12243;42.708;23.310;2023-06-24T10:49:51;94978.81;;;35.84;38.54
16451;BME280;12243;42.708;23.310;2023-06-24T10:52:19;94963.75;;;35.78;39.50
16451;BME280;12243;42.708;23.310;2023-06-24T10:54:47;94970.00;;;35.97;38.55
16451;BME280;12243;42.708;23.310;2023-06-24T10:57:15;94969.78;;;36.37;38.17
16451;BME280;12243;42.708;23.310;2023-06-24T10:59:47;94972.19;;;36.62;38.50
16451;BME280;12243;42.708;23.310;2023-06-24T11:02:15;94961.28;;;36.43;36.65
16451;BME280;12243;42.708;23.310;2023-06-24T11:04:44;94966.03;;;36.14;36.80
16451;BME280;12243;42.708;23.310;2023-06-24T11:07:11;94963.25;;;36.19;37.31
16451;BME280;12243;42.708;23.310;2023-06-24T11:09:40;94963.13;;;36.29;35.33
16451;BME280;12243;42.708;23.310;2023-06-24T11:12:09;94957.81;;;36.19;35.15
16451;BME280;12243;42.708;23.310;2023-06-24T11:14:36;94975.00;;;36.33;37.18
16451;BME280;12243;42.708;23.310;2023-06-24T11:17:03;94964.34;;;36.18;38.40
16451;BME280;12243;42.708;23.310;2023-06-24T11:19:30;94967.78;;;36.47;37.85
16451;BME280;12243;42.708;23.310;2023-06-24T11:22:02;94965.56;;;37.06;37.00
16451;BME280;12243;42.708;23.310;2023-06-24T11:24:28;94967.13;;;37.45;34.24
16451;BME280;12243;42.708;23.310;2023-06-24T11:26:56;94965.34;;;37.35;33.63
16451;BME280;12243;42.708;23.310;2023-06-24T11:29:23;94963.88;;;37.43;32.38
16451;BME280;12243;42.708;23.310;2023-06-24T11:31:50;94965.03;;;37.70;32.02
16451;BME280;12243;42.708;23.310;2023-06-24T11:34:17;94964.72;;;37.71;32.33
16451;BME280;12243;42.708;23.310;2023-06-24T11:36:44;94967.13;;;37.86;32.45
16451;BME280;12243;42.708;23.310;2023-06-24T11:39:22;94966.75;;;38.07;31.46
16451;BME280;12243;42.708;23.310;2023-06-24T11:41:49;94967.97;;;37.73;30.65
16451;BME280;12243;42.708;23.310;2023-06-24T11:44:17;94958.88;;;37.64;29.82
16451;BME280;12243;42.708;23.310;2023-06-24T11:46:45;94955.41;;;36.79;30.96
16451;BME280;12243;42.708;23.310;2023-06-24T11:49:12;94952.41;;;36.19;31.66
16451;BME280;12243;42.708;23.310;2023-06-24T11:51:46;94947.63;;;35.63;32.98
16451;BME280;12243;42.708;23.310;2023-06-24T11:54:15;94937.72;;;35.24;34.36
16451;BME280;12243;42.708;23.310;2023-06-24T11:56:44;94929.56;;;34.95;34.49
16451;BME280;12243;42.708;23.310;2023-06-24T11:59:18;94925.03;;;34.85;34.72
16451;BME280;12243;42.708;23.310;2023-06-24T12:01:52;94922.66;;;34.78;34.92
16451;BME280;12243;42.708;23.310;2023-06-24T12:04:19;94910.47;;;34.76;35.40
16451;BME280;12243;42.708;23.310;2023-06-24T12:06:47;94905.63;;;34.73;35.93
16451;BME280;12243;42.708;23.310;2023-06-24T12:09:14;94902.50;;;34.60;35.33
16451;BME280;12243;42.708;23.310;2023-06-24T12:11:42;94890.13;;;34.49;35.17
16451;BME280;12243;42.708;23.310;2023-06-24T12:14:09;94889.50;;;34.63;34.71
16451;BME280;12243;42.708;23.310;2023-06-24T12:16:37;94891.41;;;34.91;34.26
16451;BME280;12243;42.708;23.310;2023-06-24T12:19:05;94896.69;;;35.12;35.03
16451;BME280;12243;42.708;23.310;2023-06-24T12:21:32;94894.06;;;34.96;35.59
16451;BME280;12243;42.708;23.310;2023-06-24T12:23:59;94893.75;;;34.69;36.38
16451;BME280;12243;42.708;23.310;2023-06-24T12:26:26;94886.41;;;34.74;36.37
16451;BME280;12243;42.708;23.310;2023-06-24T12:28:55;94890.31;;;34.63;37.32
16451;BME280;12243;42.708;23.310;2023-06-24T12:31:23;94885.13;;;34.67;36.61
16451;BME280;12243;42.708;23.310;2023-06-24T12:33:50;94877.72;;;34.43;37.39
16451;BME280;12243;42.708;23.310;2023-06-24T12:36:17;94884.97;;;34.08;37.76
16451;BME280;12243;42.708;23.310;2023-06-24T12:38:44;94881.78;;;33.91;37.83
16451;BME280;12243;42.708;23.310;2023-06-24T12:41:11;94894.25;;;33.87;37.72
16451;BME280;12243;42.708;23.310;2023-06-24T12:43:38;94909.66;;;33.86;38.43
16451;BME280;12243;42.708;23.310;2023-06-24T12:46:06;94923.38;;;33.95;38.95
16451;BME280;12243;42.708;23.310;2023-06-24T12:48:33;94939.03;;;33.98;38.70
16451;BME280;12243;42.708;23.310;2023-06-24T12:51:00;94943.66;;;33.98;39.19
16451;BME280;12243;42.708;23.310;2023-06-24T12:53:27;94952.00;;;33.96;39.56
16451;BME280;12243;42.708;23.310;2023-06-24T12:55:55;94962.84;;;33.91;39.36
16451;BME280;12243;42.708;23.310;2023-06-24T12:58:23;94955.34;;;33.78;39.79